Latest Weather Observations for Hobart Airport

IDT60901

Issued at 8:31 pm EDT Saturday 16 October 2021 (issued every 10 minutes, with the page automatically refreshed every 10 minutes)

About weather observations | Map of Hobart area stations | Latest observations for Hobart area | Other Formats
Station Details ID: 094008 Name: HOBART AIRPORT Lat: -42.83 Lon: 147.50 Height: 4.0 m
Data from the previous 72 hours. | See also: Recent months at Hobart Airport
Date/Time
EDT
Temp
°C
App
Temp
°C
Dew
Point
°C
Rel
Hum
%
Delta-T
°C
Wind Press
QNH
hPa
Press
MSL
hPa
Rain since
9am
mm
Dir  Spd
km/h
Gust
km/h
Spd
kts
Gust
kts
16/08:00pm 10.6 5.3 3.2 60 3.2 WSW 20 32 11 17 1004.6 1004.6 0.8
16/07:32pm 11.0 3.9 3.8 61 3.2 SW 30 50 16 27 1004.0 1004.0 0.8
16/07:30pm 11.1 4.8 3.9 61 3.2 SW 26 39 14 21 1003.9 1003.9 0.8
16/07:22pm 11.0 4.3 3.8 61 3.2 SW 28 46 15 25 1003.8 1003.8 0.8
16/07:00pm 11.4 3.7 3.2 57 3.6 SW 33 50 18 27 1003.5 1003.5 0.8
16/06:48pm 11.8 4.3 3.6 57 3.6 SW 32 50 17 27 1003.3 1003.3 0.8
16/06:30pm 11.9 3.5 3.9 58 3.6 SW 37 54 20 29 1003.0 1003.0 0.8
16/06:05pm 12.8 5.4 4.8 58 3.7 SW 33 56 18 30 1002.8 1002.8 0.8
16/06:00pm 12.9 6.4 4.6 57 3.8 SW 28 43 15 23 1002.7 1002.7 0.8
16/05:30pm 13.0 5.1 4.4 56 3.9 SW 35 52 19 28 1002.2 1002.2 0.8
16/05:27pm 13.1 5.9 4.8 57 3.8 SW 32 52 17 28 1002.2 1002.2 0.8
16/05:00pm 12.7 5.1 5.6 62 3.3 SSW 35 50 19 27 1001.8 1001.8 0.8
16/04:31pm 12.7 4.6 5.1 60 3.5 SSW 37 56 20 30 1001.4 1001.4 0.8
16/04:30pm 12.7 4.3 5.6 62 3.3 SSW 39 56 21 30 1001.3 1001.3 0.8
16/04:07pm 12.9 6.0 6.5 65 3.1 SSW 32 50 17 27 1001.1 1001.1 0.8
16/04:00pm 13.0 5.6 6.6 65 3.1 SSW 35 48 19 26 1001.0 1001.0 0.8
16/03:53pm 12.9 5.3 6.0 63 3.3 SSW 35 54 19 29 1000.8 1000.8 0.8
16/03:30pm 12.9 4.2 6.0 63 3.3 SSW 41 57 22 31 1000.6 1000.6 0.8
16/03:12pm 13.3 5.2 6.9 65 3.1 SSW 39 57 21 31 1000.4 1000.4 0.8
16/03:00pm 13.7 5.2 7.0 64 3.3 SSW 41 52 22 28 1000.3 1000.3 0.8
16/02:30pm 13.5 5.7 8.1 70 2.7 SSW 39 57 21 31 1000.5 1000.5 0.8
16/02:17pm 13.5 5.6 7.9 69 2.8 SSW 39 61 21 33 1000.5 1000.5 0.8
16/02:00pm 13.7 5.5 8.3 70 2.7 SSW 41 54 22 29 1000.5 1000.5 0.8
16/01:30pm 12.7 5.3 8.4 75 2.1 SSW 37 54 20 29 1000.7 1000.7 0.8
16/01:00pm 11.9 4.7 9.1 83 1.4 SSW 37 61 20 33 1000.6 1000.6 0.8
16/12:51pm 11.3 2.7 8.2 81 1.5 SSW 43 61 23 33 1000.5 1000.5 0.8
16/12:49pm 11.8 3.1 7.9 77 1.9 SSW 43 59 23 32 1000.6 1000.6 0.8
16/12:30pm 12.3 5.1 9.3 82 1.5 SSW 37 57 20 31 1000.6 1000.6 0.8
16/12:17pm 10.7 1.9 8.1 84 1.3 SSW 44 63 24 34 1000.7 1000.7 0.8
16/12:10pm 12.1 4.5 7.6 74 2.2 SSW 37 61 20 33 1000.6 1000.6 0.4
16/12:00pm 13.3 5.9 8.2 71 2.5 SSW 37 52 20 28 1000.5 1000.5 0.4
16/11:30am 11.4 4.6 7.9 79 1.7 SSW 33 48 18 26 1000.8 1000.8 0.4
16/11:00am 10.7 3.7 8.3 85 1.2 SSW 35 54 19 29 1000.8 1000.8 0.4
16/10:53am 10.6 4.3 7.5 81 1.5 SSW 30 54 16 29 1000.9 1000.9 0.4
16/10:51am 10.5 4.6 7.7 83 1.3 SSW 28 43 15 23 1000.8 1000.8 0.4
16/10:46am 11.2 4.6 7.9 80 1.6 SSW 32 43 17 23 1000.7 1000.7 0.2
16/10:44am 11.3 4.6 7.2 76 2.0 SSW 32 43 17 23 1000.7 1000.7 0.2
16/10:30am 11.2 4.1 7.9 80 1.6 SSW 35 50 19 27 1000.5 1000.5 0.2
16/10:06am 11.6 5.1 6.7 72 2.3 SSW 30 48 16 26 1000.1 1000.1 0.2
16/10:00am 11.6 4.8 6.7 72 2.3 SSW 32 44 17 24 1000.2 1000.2 0.2
16/09:30am 10.9 4.2 7.4 79 1.7 SSW 32 48 17 26 1000.1 1000.1 0.2
16/09:08am 10.9 4.2 7.2 78 1.8 SSW 32 57 17 31 999.9 999.9 0.2
16/09:00am 11.3 5.2 6.6 73 2.2 SSW 28 39 15 21 999.7 999.7 6.2
16/08:35am 11.1 3.4 7.0 76 2.0 SSW 37 56 20 30 999.5 999.5 6.2
16/08:30am 11.1 3.8 7.2 77 1.9 SSW 35 52 19 28 999.6 999.6 6.2
16/08:00am 10.7 3.5 7.6 81 1.5 SSW 35 54 19 29 999.2 999.2 6.2
16/07:44am 10.6 1.9 7.7 82 1.4 SSW 43 61 23 33 998.9 998.9 6.2
16/07:30am 10.9 2.2 7.6 80 1.6 SSW 43 67 23 36 998.4 998.4 6.2
16/07:06am 10.7 2.4 7.9 83 1.4 SSW 41 59 22 32 997.9 997.8 6.2
16/07:00am 10.7 2.8 7.8 82 1.4 SSW 39 54 21 29 997.8 997.7 6.2
16/06:53am 10.5 3.4 8.1 85 1.2 SSW 35 54 19 29 997.6 997.5 6.2
16/06:52am 10.5 3.0 8.1 85 1.2 SSW 37 54 20 29 997.7 997.6 6.2
16/06:40am 10.5 2.7 8.1 85 1.2 SSW 39 59 21 32 997.4 997.3 6.2
16/06:30am 10.4 2.6 8.2 86 1.1 SSW 39 59 21 32 997.3 997.2 6.2
16/06:27am 10.4 2.2 8.3 87 1.0 SSW 41 59 22 32 997.1 997.1 6.2
16/06:18am 10.2 2.5 8.5 89 0.8 SW 39 57 21 31 997.0 997.0 6.2
16/06:00am 10.2 3.0 9.0 92 0.6 SSW 37 59 20 32 996.7 996.7 5.8
16/05:56am 10.2 3.0 9.0 92 0.6 SSW 37 56 20 30 996.7 996.7 5.6
16/05:54am 10.2 2.6 9.0 92 0.6 SSW 39 56 21 30 996.7 996.7 5.4
16/05:51am 10.3 2.3 8.9 91 0.7 SSW 41 56 22 30 996.6 996.6 5.4
16/05:48am 10.3 2.7 8.9 91 0.7 SSW 39 56 21 30 996.6 996.6 5.2
16/05:34am 10.3 3.7 8.7 90 0.8 SW 33 59 18 32 996.4 996.4 4.8
16/05:30am 10.3 3.3 8.6 89 0.8 SSW 35 46 19 25 996.2 996.2 4.8
16/05:15am 10.4 3.8 8.5 88 0.9 SW 33 48 18 26 996.2 996.2 4.6
16/05:02am 10.9 3.8 8.0 82 1.4 SW 35 54 19 29 996.1 996.1 4.6
16/05:00am 10.8 3.3 8.0 83 1.4 SW 37 54 20 29 996.0 996.0 4.6
16/04:32am 11.0 2.2 7.9 81 1.5 SW 44 63 24 34 995.9 995.9 4.6
16/04:30am 11.0 1.8 8.1 82 1.4 SW 46 63 25 34 995.9 995.9 4.6
16/04:00am 11.2 3.3 7.9 80 1.6 SSW 39 57 21 31 995.7 995.7 4.6
16/03:30am 11.4 2.2 7.9 79 1.7 SSW 46 72 25 39 995.6 995.6 4.6
16/03:00am 11.3 2.7 8.2 81 1.5 SSW 43 70 23 38 995.5 995.5 4.6
16/02:37am 11.2 1.6 8.1 81 1.5 SSW 48 76 26 41 995.4 995.4 4.6
16/02:30am 11.4 2.2 7.9 79 1.7 SSW 46 76 25 41 995.4 995.4 4.6
16/02:22am 11.1 1.5 8.0 81 1.5 SSW 48 69 26 37 995.4 995.4 4.6
16/02:03am 11.1 1.4 9.2 88 0.9 SSW 50 78 27 42 995.3 995.3 4.6
16/02:00am 11.2 1.1 9.1 87 1.1 SSW 52 70 28 38 995.3 995.3 4.6
16/01:58am 11.2 1.1 8.9 86 1.1 SSW 52 70 28 38 995.2 995.2 4.6
16/01:54am 11.2 1.5 8.9 86 1.1 SSW 50 70 27 38 995.2 995.2 4.6
16/01:30am 11.4 4.3 9.7 89 0.9 SSW 37 56 20 30 995.1 995.1 4.6
16/01:26am 11.5 4.1 9.9 90 0.8 SSW 39 59 21 32 995.1 995.1 4.6
16/01:09am 11.6 3.9 10.2 91 0.7 SSW 41 59 22 32 995.1 995.1 4.6
16/01:00am 11.9 3.8 10.0 88 1.0 SSW 43 61 23 33 995.1 995.1 4.6
16/12:38am 12.1 4.4 10.2 88 1.0 SSW 41 59 22 32 994.8 994.8 4.6
16/12:30am 12.3 5.8 10.4 88 1.0 SSW 35 50 19 27 994.8 994.8 4.6
16/12:20am 12.4 5.9 10.3 87 1.1 SSW 35 54 19 29 994.8 994.8 4.6
16/12:12am 12.5 6.4 10.6 88 1.0 SW 33 44 18 24 994.9 994.9 4.6
16/12:00am 12.6 7.7 11.3 92 0.7 SW 28 41 15 22 995.0 995.0 4.4
 
Date/Time
EDT
Temp
°C
App
Temp
°C
Dew
Point
°C
Rel
Hum
%
Delta-T
°C
Wind Press
QNH
hPa
Press
MSL
hPa
Rain since
9am
mm
Dir  Spd
km/h
Gust
km/h
Spd
kts
Gust
kts
15/11:44pm 13.2 10.9 11.9 92 0.7 SSW 15 24 8 13 995.0 995.0 3.6
15/11:30pm 13.2 11.3 11.9 92 0.7 S 13 17 7 9 995.1 995.1 3.4
15/11:06pm 13.2 11.7 11.9 92 0.7 SSW 11 15 6 8 995.1 995.1 3.4
15/11:00pm 13.3 11.8 11.9 91 0.8 SSW 11 13 6 7 995.2 995.2 3.4
15/10:30pm 13.2 11.5 12.3 94 0.5 SSW 13 17 7 9 995.2 995.2 3.4
15/10:00pm 13.5 11.8 12.4 93 0.6 SSE 13 19 7 10 995.0 995.0 3.4
15/09:30pm 13.8 12.2 12.7 93 0.6 S 13 15 7 8 995.1 995.1 3.4
15/09:00pm 13.8 12.5 12.4 91 0.8 S 11 13 6 7 995.2 995.2 3.4
15/08:30pm 13.9 11.8 12.5 91 0.8 S 15 17 8 9 995.1 995.1 3.4
15/08:14pm 14.0 12.5 13.1 94 0.5 SSE 13 17 7 9 995.0 995.0 3.4
15/08:00pm 14.0 13.2 12.9 93 0.6 SE 9 13 5 7 994.9 994.9 3.4
15/07:30pm 14.4 13.5 12.6 89 1.0 SSE 9 11 5 6 994.5 994.5 3.4
15/07:00pm 14.9 13.9 13.3 90 0.9 SE 11 13 6 7 994.6 994.6 3.4
15/06:30pm 15.4 14.6 12.9 85 1.4 SSE 9 13 5 7 994.5 994.5 3.4
15/06:17pm 15.5 13.9 12.8 84 1.5 SSE 13 17 7 9 994.1 994.1 3.4
15/06:00pm 15.3 13.8 13.0 86 1.3 SSE 13 17 7 9 993.7 993.7 3.4
15/05:30pm 14.8 13.3 13.2 90 0.9 SSW 13 17 7 9 993.9 993.9 3.4
15/05:00pm 14.6 12.4 13.3 92 0.7 SW 17 20 9 11 993.5 993.5 3.4
15/04:30pm 15.0 14.1 13.7 92 0.7 S 11 15 6 8 994.0 994.0 3.4
15/04:00pm 14.7 13.4 13.6 93 0.6 SSE 13 17 7 9 994.1 994.1 3.4
15/03:30pm 14.8 13.8 13.5 92 0.7 SE 11 13 6 7 994.4 994.4 3.4
15/03:00pm 15.1 13.4 13.6 91 0.8 S 15 20 8 11 994.5 994.5 3.4
15/02:42pm 15.2 13.2 13.9 92 0.7 S 17 22 9 12 994.4 994.4 3.4
15/02:30pm 15.1 12.8 14.0 93 0.6 S 19 20 10 11 994.5 994.5 3.4
15/02:22pm 15.3 13.2 13.7 90 0.9 SSE 17 22 9 12 994.6 994.6 3.4
15/02:00pm 15.8 13.5 14.2 90 0.9 S 19 24 10 13 994.6 994.6 3.4
15/01:48pm 15.7 14.0 14.6 93 0.6 SSE 17 22 9 12 994.6 994.6 3.4
15/01:41pm 15.3 13.4 14.2 93 0.6 SSE 17 22 9 12 994.9 994.9 3.4
15/01:30pm 14.9 13.0 14.1 95 0.5 SSE 17 20 9 11 995.1 995.1 3.4
15/01:23pm 14.8 12.8 14.0 95 0.5 SSE 17 20 9 11 995.4 995.4 3.4
15/01:15pm 14.5 12.4 13.7 95 0.4 SSE 17 22 9 12 995.4 995.4 3.4
15/01:00pm 14.7 12.8 14.1 96 0.3 S 17 20 9 11 995.3 995.3 3.4
15/12:58pm 14.4 12.3 13.6 95 0.4 S 17 22 9 12 995.3 995.3 3.4
15/12:57pm 14.5 12.4 13.7 95 0.4 S 17 22 9 12 995.3 995.3 3.4
15/12:38pm 14.4 13.1 13.8 96 0.3 S 13 17 7 9 995.8 995.8 3.4
15/12:30pm 14.3 12.6 13.7 96 0.3 S 15 20 8 11 996.1 996.1 3.0
15/12:22pm 14.2 12.4 13.4 95 0.4 S 15 20 8 11 996.2 996.2 3.0
15/12:00pm 14.5 12.9 13.9 96 0.3 S 15 19 8 10 996.3 996.3 2.8
15/11:36am 14.6 13.0 13.8 95 0.4 SSE 15 19 8 10 996.8 996.8 2.4
15/11:30am 14.4 13.0 13.4 94 0.6 SE 13 19 7 10 996.9 996.9 2.0
15/11:24am 14.4 13.4 13.3 93 0.6 SE 11 17 6 9 997.1 997.1 1.8
15/11:00am 14.2 13.1 13.1 93 0.6 SE 11 15 6 8 997.5 997.4 1.8
15/10:50am 14.3 13.3 13.3 94 0.6 SE 11 15 6 8 997.6 997.5 1.8
15/10:30am 14.1 13.0 13.1 94 0.6 SE 11 15 6 8 997.9 997.8 1.8
15/10:00am 13.6 12.1 13.0 96 0.3 SE 13 15 7 8 998.3 998.3 1.6
15/09:47am 13.5 11.6 12.9 96 0.3 SE 15 19 8 10 998.4 998.4 1.4
15/09:30am 13.2 11.2 12.6 96 0.3 SE 15 19 8 10 998.5 998.5 0.8
15/09:21am 13.1 10.7 12.6 97 0.3 SE 17 24 9 13 998.6 998.6 0.6
15/09:00am 13.0 10.5 12.4 96 0.3 SSE 17 20 9 11 998.8 998.8 5.6
15/08:30am 12.9 10.4 12.3 96 0.3 SSE 17 22 9 12 999.2 999.2 4.8
15/08:20am 12.9 10.4 12.3 96 0.3 SSE 17 22 9 12 999.3 999.3 4.8
15/08:00am 12.9 10.0 12.3 96 0.3 SSE 19 26 10 14 999.5 999.5 4.8
15/07:44am 12.9 10.0 12.3 96 0.3 SE 19 26 10 14 999.7 999.7 4.8
15/07:30am 12.8 9.7 12.2 96 0.3 SE 20 30 11 16 999.6 999.6 4.8
15/07:00am 12.8 9.7 12.2 96 0.3 SSE 20 26 11 14 999.9 999.9 4.6
15/06:30am 12.9 11.2 12.3 96 0.3 SE 13 19 7 10 1000.4 1000.4 4.6
15/06:12am 12.9 10.8 12.3 96 0.3 SE 15 24 8 13 1000.4 1000.4 4.6
15/06:07am 12.9 10.4 12.3 96 0.3 SE 17 26 9 14 1000.5 1000.5 4.6
15/06:00am 12.9 10.3 12.1 95 0.4 SE 17 26 9 14 1000.5 1000.5 4.6
15/05:36am 13.0 10.8 12.2 95 0.4 SE 15 20 8 11 1000.7 1000.7 4.6
15/05:30am 13.0 11.2 12.2 95 0.4 ESE 13 24 7 13 1000.8 1000.8 4.4
15/05:10am 13.0 10.8 12.2 95 0.4 SE 15 22 8 12 1001.0 1001.0 4.0
15/05:00am 13.0 10.8 12.2 95 0.4 SE 15 20 8 11 1001.2 1001.2 4.0
15/04:39am 13.1 10.9 12.2 94 0.5 SE 15 22 8 12 1001.6 1001.6 4.0
15/04:30am 13.1 10.9 12.0 93 0.6 ESE 15 24 8 13 1001.8 1001.8 4.0
15/04:23am 13.0 11.2 12.1 94 0.5 SE 13 20 7 11 1001.8 1001.8 4.0
15/04:11am 13.0 11.2 12.1 94 0.5 ESE 13 19 7 10 1002.0 1002.0 4.0
15/04:00am 13.1 11.3 12.0 93 0.6 ESE 13 20 7 11 1002.2 1002.2 4.0
15/03:30am 13.1 11.3 12.2 94 0.5 SE 13 17 7 9 1002.6 1002.6 4.0
15/03:00am 13.1 11.6 12.0 93 0.6 SE 11 17 6 9 1003.0 1003.0 4.0
15/02:30am 13.1 11.6 12.0 93 0.6 SE 11 15 6 8 1003.4 1003.4 4.0
15/02:00am 13.1 12.1 12.2 94 0.5 SE 9 13 5 7 1004.1 1004.1 4.0
15/01:58am 13.1 12.1 12.2 94 0.5 SE 9 13 5 7 1004.1 1004.1 4.0
15/01:30am 13.3 12.3 12.2 93 0.6 SSE 9 11 5 6 1004.8 1004.8 4.0
15/01:00am 13.3 12.3 12.4 94 0.5 SE 9 13 5 7 1005.1 1005.1 4.0
15/12:30am 13.0 11.9 12.1 94 0.5 ESE 9 13 5 7 1005.3 1005.3 4.0
15/12:00am 13.2 12.2 12.3 94 0.5 SSE 9 11 5 6 1005.6 1005.6 4.0
 
Date/Time
EDT
Temp
°C
App
Temp
°C
Dew
Point
°C
Rel
Hum
%
Delta-T
°C
Wind Press
QNH
hPa
Press
MSL
hPa
Rain since
9am
mm
Dir  Spd
km/h
Gust
km/h
Spd
kts
Gust
kts
14/11:30pm 13.2 11.5 12.3 94 0.5 SSE 13 15 7 8 1006.1 1006.1 4.0
14/11:00pm 13.0 11.2 12.2 95 0.4 SSE 13 17 7 9 1006.5 1006.5 4.0
14/10:30pm 12.8 11.3 12.0 95 0.4 SSE 11 11 6 6 1006.9 1006.9 4.0
14/10:00pm 12.8 11.0 12.0 95 0.4 SSE 13 15 7 8 1007.1 1007.1 4.0
14/09:30pm 12.6 11.1 11.8 95 0.4 SSE 11 15 6 8 1007.4 1007.4 4.0
14/09:06pm 12.5 10.5 11.6 94 0.5 SSE 13 15 7 8 1007.4 1007.4 4.0
14/09:00pm 12.6 10.7 11.7 94 0.5 SSE 13 15 7 8 1007.5 1007.5 4.0
14/08:49pm 12.6 11.4 11.7 94 0.5 SSE 9 11 5 6 1007.6 1007.6 4.0
14/08:30pm 12.6 11.4 11.5 93 0.6 SSE 9 13 5 7 1007.7 1007.7 3.8
14/08:07pm 12.5 10.9 11.4 93 0.6 SE 11 15 6 8 1007.8 1007.8 3.8
14/08:00pm 12.6 10.6 11.5 93 0.6 SE 13 17 7 9 1007.9 1007.9 3.6
14/07:30pm 12.6 11.3 11.3 92 0.7 SE 9 13 5 7 1008.0 1008.0 2.0
14/07:09pm 12.8 11.5 11.2 90 0.8 SE 9 13 5 7 1008.0 1008.0 1.2
14/07:00pm 12.7 11.0 11.3 91 0.7 SSE 11 13 6 7 1008.1 1008.1 1.2
14/06:30pm 12.8 11.5 11.4 91 0.7 SE 9 13 5 7 1008.1 1008.1 1.2
14/06:00pm 12.9 11.6 11.1 89 0.9 SE 9 11 5 6 1008.3 1008.3 1.0
14/05:30pm 12.9 11.6 11.1 89 0.9 SE 9 11 5 6 1008.5 1008.5 1.0
14/05:00pm 12.7 11.3 10.9 89 0.9 SE 9 13 5 7 1008.8 1008.8 1.0
14/04:30pm 12.9 11.4 10.6 86 1.2 E 9 17 5 9 1009.1 1009.1 0.8
14/04:00pm 12.9 10.7 10.8 87 1.1 ENE 13 17 7 9 1009.5 1009.5 0.4
14/03:30pm 13.3 11.0 10.3 82 1.6 ENE 13 17 7 9 1009.7 1009.7 0.0
14/03:00pm 14.0 10.8 9.8 76 2.2 ENE 17 26 9 14 1009.9 1009.9 0.0
14/02:30pm 14.3 10.7 9.9 75 2.3 NE 19 28 10 15 1010.2 1010.2 0.0
14/02:00pm 13.8 10.2 10.6 81 1.7 NE 20 30 11 16 1010.6 1010.6 0.0
14/01:30pm 14.1 10.9 10.1 77 2.1 ENE 17 26 9 14 1010.8 1010.8 0.0
14/01:00pm 14.1 10.4 9.5 74 2.4 ENE 19 28 10 15 1010.9 1010.9 0.0
14/12:30pm 13.7 10.3 9.2 74 2.3 NE 17 26 9 14 1011.4 1011.4 0.0
14/12:00pm 13.8 8.9 8.6 71 2.6 NE 24 35 13 19 1011.5 1011.5 0.0
14/11:30am 13.6 9.6 9.1 74 2.3 NE 20 30 11 16 1011.8 1011.8 0.0
14/11:00am 13.9 10.9 9.1 73 2.4 NE 15 22 8 12 1012.1 1012.1 0.0
14/10:30am 14.0 10.5 8.8 71 2.6 NE 17 26 9 14 1012.4 1012.4 0.0
14/10:00am 13.8 10.0 9.0 73 2.4 NE 19 24 10 13 1012.6 1012.6 0.0
14/09:30am 13.5 10.4 8.8 73 2.4 NE 15 22 8 12 1012.8 1012.8 0.0
14/09:00am 13.2 10.1 8.9 75 2.2 ENE 15 22 8 12 1013.0 1013.0 0.0
14/08:30am 12.7 10.4 9.0 78 1.9 ENE 11 17 6 9 1013.0 1013.0 0.0
14/08:09am 12.4 9.4 9.1 80 1.7 NE 15 22 8 12 1013.1 1013.1 0.0
14/08:00am 12.1 9.9 9.5 84 1.3 ENE 11 17 6 9 1013.1 1013.1 0.0
14/07:30am 11.8 9.5 9.0 83 1.4 ESE 11 17 6 9 1013.4 1013.4 0.0
14/07:00am 11.8 9.9 9.0 83 1.4 E 9 15 5 8 1013.4 1013.4 0.0
14/06:30am 11.8 9.6 9.2 84 1.3 E 11 20 6 11 1013.4 1013.4 0.0
14/06:00am 11.8 10.0 9.4 85 1.2 ESE 9 13 5 7 1013.2 1013.2 0.0
14/05:30am 11.7 9.5 9.4 86 1.2 E 11 17 6 9 1013.0 1013.0 0.0
14/05:00am 11.5 9.3 9.2 86 1.2 E 11 15 6 8 1012.9 1012.9 0.0
14/04:41am 11.5 9.3 9.4 87 1.1 ESE 11 19 6 10 1013.0 1013.0 0.0
14/04:35am 11.6 9.4 9.5 87 1.1 SE 11 15 6 8 1013.0 1013.0 0.0
14/04:30am 11.6 9.4 9.5 87 1.1 SE 11 15 6 8 1013.1 1013.1 0.0
14/04:00am 11.9 10.0 9.1 83 1.4 SE 9 13 5 7 1013.4 1013.4 0.0
14/03:59am 11.8 9.9 9.0 83 1.4 SE 9 13 5 7 1013.4 1013.4 0.0
14/03:30am 11.7 9.8 8.9 83 1.4 SE 9 13 5 7 1013.6 1013.6 0.0
14/03:00am 11.2 9.5 8.4 83 1.4 SE 7 9 4 5 1013.9 1013.9 0.0
14/02:30am 11.1 9.6 8.3 83 1.4 ESE 6 9 3 5 1014.4 1014.4 0.0
14/02:00am 10.8 8.6 8.0 83 1.4 SSE 9 9 5 5 1014.8 1014.8 0.0
14/01:30am 10.8 9.1 8.2 84 1.3 ESE 7 11 4 6 1015.2 1015.2 0.0
14/01:00am 11.2 9.5 8.2 82 1.5 SE 7 9 4 5 1015.7 1015.7 0.0
14/12:30am 10.8 7.8 7.7 81 1.5 E 13 19 7 10 1015.9 1015.9 0.0
14/12:00am 11.2 7.8 7.5 78 1.8 NE 15 19 8 10 1016.2 1016.2 0.0
 
Date/Time
EDT
Temp
°C
App
Temp
°C
Dew
Point
°C
Rel
Hum
%
Delta-T
°C
Wind Press
QNH
hPa
Press
MSL
hPa
Rain since
9am
mm
Dir  Spd
km/h
Gust
km/h
Spd
kts
Gust
kts
13/11:30pm 11.3 7.9 7.6 78 1.8 NNE 15 20 8 11 1016.6 1016.6 0.0
13/11:00pm 11.2 6.9 7.7 79 1.7 NNE 20 30 11 16 1016.7 1016.7 0.0
13/10:30pm 11.1 6.9 7.6 79 1.7 NNE 19 30 10 16 1016.9 1016.9 0.0
13/10:00pm 10.5 7.7 7.0 79 1.7 NNE 11 17 6 9 1017.1 1017.1 0.0
13/09:30pm 11.0 8.3 7.5 79 1.7 NE 11 20 6 11 1017.1 1017.1 0.0
13/09:00pm 11.3 8.3 7.8 79 1.7 NNE 13 20 7 11 1017.1 1017.1 0.0

Latest Capital City Observations: Canberra | Sydney | Melbourne | Brisbane | Adelaide | Perth | Hobart | Darwin

Other formats

Comma delimited format used in spreadsheet applications
http://www.bom.gov.au/fwo/IDT60901/IDT60901.94975.axf

JavaScript Object Notation format (JSON) in row-major order
http://www.bom.gov.au/fwo/IDT60901/IDT60901.94975.json

Data quality

Most of these data are generated automatically and are frequently updated. Quality checks on data are not normally performed. It is possible for incorrect values to appear. Refer to information at About Latest Weather Observations and please check the disclaimer before using these data.